createdAt,value
2018-11-21T00:02:27.914Z,21.97
2018-11-21T00:04:56.079Z,20.87
2018-11-21T00:07:24.257Z,21.20
2018-11-21T00:09:52.469Z,22.00
2018-11-21T00:12:20.761Z,22.77
2018-11-21T00:14:48.978Z,22.23
2018-11-21T00:17:17.206Z,23.90
2018-11-21T00:19:45.431Z,23.03
2018-11-21T00:22:13.681Z,20.20
2018-11-21T00:24:41.882Z,21.50
2018-11-21T00:27:10.054Z,21.47
2018-11-21T00:29:38.195Z,22.97
2018-11-21T00:32:10.613Z,22.43
2018-11-21T00:34:38.792Z,21.87
2018-11-21T00:37:06.938Z,23.50
2018-11-21T00:39:35.105Z,22.30
2018-11-21T00:42:03.280Z,23.97
2018-11-21T00:44:31.426Z,22.60
2018-11-21T00:46:59.595Z,25.93
2018-11-21T00:49:28.213Z,22.80
2018-11-21T00:51:56.370Z,24.10
2018-11-21T00:54:24.523Z,23.93
2018-11-21T00:56:52.688Z,23.57
2018-11-21T00:59:20.936Z,24.73
2018-11-21T01:01:49.498Z,25.93
2018-11-21T01:04:17.673Z,24.33
2018-11-21T01:06:46.140Z,26.57
2018-11-21T01:09:14.297Z,21.87
2018-11-21T01:11:42.483Z,24.47
2018-11-21T01:14:11.231Z,25.87
2018-11-21T01:16:39.423Z,25.27
2018-11-21T01:19:07.603Z,26.23
2018-11-21T01:21:35.760Z,19.20
2018-11-21T01:24:03.949Z,23.40
2018-11-21T01:26:32.280Z,23.37
2018-11-21T01:29:00.472Z,21.40
2018-11-21T01:31:28.818Z,24.97
2018-11-21T01:33:57.819Z,24.23
2018-11-21T01:36:25.999Z,27.80
2018-11-21T01:38:54.186Z,38.33
2018-11-21T01:41:22.414Z,49.30
2018-11-21T01:43:50.566Z,45.33
2018-11-21T01:46:18.730Z,48.60
2018-11-21T01:48:46.910Z,41.80
2018-11-21T01:51:15.065Z,43.67
2018-11-21T01:53:43.232Z,39.77
2018-11-21T01:56:11.696Z,34.50
2018-11-21T01:58:39.847Z,34.53
2018-11-21T02:01:08.339Z,36.60
2018-11-21T02:03:36.821Z,31.70
2018-11-21T02:06:05.659Z,30.47
2018-11-21T02:08:33.985Z,30.83
2018-11-21T02:11:02.197Z,25.60
2018-11-21T02:13:30.360Z,25.70
2018-11-21T02:15:58.607Z,26.13
2018-11-21T02:18:27.363Z,18.70
2018-11-21T02:20:55.517Z,22.30
2018-11-21T02:23:23.681Z,22.93
2018-11-21T02:25:51.859Z,18.87
2018-11-21T02:28:20.015Z,21.63
2018-11-21T02:30:48.201Z,18.40
2018-11-21T02:33:16.732Z,23.63
2018-11-21T02:35:44.907Z,18.63
2018-11-21T02:38:13.068Z,22.07
2018-11-21T02:40:41.314Z,19.47
2018-11-21T02:43:09.562Z,19.60
2018-11-21T02:45:37.698Z,17.20
2018-11-21T02:48:06.020Z,20.73
2018-11-21T02:50:34.183Z,19.57
2018-11-21T02:53:02.390Z,15.87
2018-11-21T02:55:30.733Z,19.20
2018-11-21T02:57:58.883Z,22.57
2018-11-21T03:00:28.133Z,18.03
2018-11-21T03:02:56.306Z,19.70
2018-11-21T03:05:24.480Z,18.10
2018-11-21T03:07:56.930Z,21.13
2018-11-21T03:10:25.705Z,21.83
2018-11-21T03:12:54.071Z,26.27
2018-11-21T03:15:22.238Z,22.60
2018-11-21T03:17:50.429Z,25.60
2018-11-21T03:20:18.795Z,25.73
2018-11-21T03:22:47.171Z,24.15
2018-11-21T03:25:15.371Z,20.00
2018-11-21T03:27:43.561Z,19.97
2018-11-21T03:30:12.813Z,20.33
2018-11-21T03:32:41.623Z,21.60
2018-11-21T03:35:09.881Z,18.90
2018-11-21T03:37:38.136Z,18.47
2018-11-21T03:40:09.062Z,21.90
2018-11-21T03:42:37.476Z,21.37
2018-11-21T03:45:07.645Z,18.50
2018-11-21T03:47:35.844Z,19.50
2018-11-21T03:50:04.788Z,22.47
2018-11-21T03:52:32.925Z,17.73
2018-11-21T03:55:01.106Z,22.33
2018-11-21T03:57:29.371Z,18.20
2018-11-21T03:59:57.522Z,17.80
2018-11-21T04:02:25.695Z,20.03
2018-11-21T04:04:53.919Z,21.07
2018-11-21T04:07:22.205Z,20.10
2018-11-21T04:09:50.304Z,21.90
2018-11-21T04:12:18.490Z,17.30
2018-11-21T04:14:46.643Z,20.27
2018-11-21T04:17:14.831Z,17.50
2018-11-21T04:19:43.622Z,18.77
2018-11-21T04:22:12.123Z,35.00
2018-11-21T04:24:40.340Z,24.03
2018-11-21T04:27:08.488Z,23.30
2018-11-21T04:29:36.657Z,17.63
2018-11-21T04:32:05.102Z,20.10
2018-11-21T04:34:33.669Z,20.73
2018-11-21T04:37:01.847Z,22.73
2018-11-21T04:39:30.053Z,22.20
2018-11-21T04:41:58.233Z,20.73
2018-11-21T04:44:26.438Z,18.73
2018-11-21T04:46:54.596Z,16.30
2018-11-21T04:49:22.753Z,18.10
2018-11-21T04:51:50.901Z,20.37
2018-11-21T04:54:19.516Z,17.50
2018-11-21T04:56:47.692Z,20.77
2018-11-21T04:59:15.856Z,17.93
2018-11-21T05:01:44.044Z,16.62
2018-11-21T05:04:12.610Z,23.83
2018-11-21T05:06:40.756Z,15.73
2018-11-21T05:09:10.534Z,18.00
2018-11-21T05:11:38.684Z,19.30
2018-11-21T05:14:07.178Z,17.40
2018-11-21T05:16:35.348Z,18.00
2018-11-21T05:19:03.509Z,17.23
2018-11-21T05:21:31.663Z,18.63
2018-11-21T05:23:59.936Z,16.70
2018-11-21T05:26:28.098Z,18.00
2018-11-21T05:28:56.285Z,19.67
2018-11-21T05:31:24.477Z,17.57
2018-11-21T05:33:52.647Z,19.60
2018-11-21T05:36:20.931Z,18.63
2018-11-21T05:38:49.113Z,18.30
2018-11-21T05:41:17.267Z,17.90
2018-11-21T05:43:45.413Z,16.97
2018-11-21T05:46:13.578Z,19.97
2018-11-21T05:48:41.733Z,17.90
2018-11-21T05:51:09.888Z,15.70
2018-11-21T05:53:38.087Z,18.60
2018-11-21T05:56:06.245Z,18.40
2018-11-21T05:58:34.397Z,18.50
2018-11-21T06:01:02.960Z,17.90
2018-11-21T06:03:31.122Z,17.13
2018-11-21T06:05:59.285Z,17.27
2018-11-21T06:08:27.460Z,15.90
2018-11-21T06:10:55.942Z,15.67
2018-11-21T06:13:24.101Z,15.75
2018-11-21T06:15:52.282Z,14.63
2018-11-21T06:18:20.471Z,15.27
2018-11-21T06:20:48.626Z,16.17
2018-11-21T06:23:16.809Z,17.20
2018-11-21T06:25:44.990Z,15.13
2018-11-21T06:28:13.192Z,15.57
2018-11-21T06:30:41.737Z,15.40
2018-11-21T06:33:09.942Z,13.47
2018-11-21T06:35:38.150Z,13.93
2018-11-21T06:38:06.407Z,14.43
2018-11-21T06:40:34.655Z,13.00
2018-11-21T06:43:02.831Z,15.23
2018-11-21T06:45:31.015Z,11.00
2018-11-21T06:47:59.161Z,14.60
2018-11-21T06:50:27.324Z,11.20
2018-11-21T06:52:56.945Z,12.43
2018-11-21T06:55:25.095Z,12.63
2018-11-21T06:57:53.259Z,12.60
2018-11-21T07:00:21.467Z,17.20
2018-11-21T07:02:49.612Z,15.60
2018-11-21T07:05:17.759Z,13.80
2018-11-21T07:07:45.937Z,15.40
2018-11-21T07:10:14.993Z,13.77
2018-11-21T07:12:43.798Z,15.20
2018-11-21T07:15:11.952Z,15.97
2018-11-21T07:17:40.103Z,12.57
2018-11-21T07:20:12.494Z,17.83
2018-11-21T07:22:41.018Z,15.03
2018-11-21T07:25:16.020Z,20.33
2018-11-21T07:27:44.296Z,31.42
2018-11-21T07:30:13.910Z,28.87
2018-11-21T07:32:42.064Z,29.23
2018-11-21T07:35:10.759Z,16.23
2018-11-21T07:37:40.093Z,17.30
2018-11-21T07:40:09.859Z,14.73
2018-11-21T07:42:38.023Z,12.47
2018-11-21T07:45:08.715Z,14.43
2018-11-21T07:47:37.055Z,14.50
2018-11-21T07:50:20.195Z,15.13
2018-11-21T07:52:48.353Z,17.57
2018-11-21T07:55:16.491Z,14.20
2018-11-21T07:57:52.601Z,15.33
2018-11-21T08:01:00.312Z,14.73
2018-11-21T08:03:30.381Z,16.90
2018-11-21T08:06:19.184Z,14.97
2018-11-21T08:09:15.170Z,19.93
2018-11-21T08:12:01.052Z,16.80
2018-11-21T08:14:42.367Z,15.27
2018-11-21T08:17:29.630Z,18.40
2018-11-21T08:20:15.689Z,18.10
2018-11-21T08:23:05.866Z,14.63
2018-11-21T08:25:51.924Z,20.97
2018-11-21T08:28:28.008Z,17.73
2018-11-21T08:30:56.162Z,17.70
2018-11-21T08:33:24.330Z,17.10
2018-11-21T08:35:52.478Z,20.10
2018-11-21T08:38:20.630Z,16.40
2018-11-21T08:40:48.804Z,18.87
2018-11-21T08:43:16.967Z,15.67
2018-11-21T08:45:45.325Z,15.33
2018-11-21T08:48:14.239Z,17.07
2018-11-21T08:50:42.386Z,16.10
2018-11-21T08:53:10.539Z,14.53
2018-11-21T08:55:39.093Z,15.63
2018-11-21T08:58:07.926Z,13.50
2018-11-21T09:00:36.163Z,14.63
2018-11-21T09:03:05.012Z,15.57
2018-11-21T09:05:33.189Z,16.67
2018-11-21T09:08:01.331Z,17.23
2018-11-21T09:12:57.174Z,15.77
2018-11-21T09:15:25.311Z,15.10
2018-11-21T09:17:53.480Z,17.10
2018-11-21T09:20:21.637Z,14.47
2018-11-21T09:22:49.799Z,16.40
2018-11-21T09:25:17.970Z,15.00
2018-11-21T09:27:46.112Z,14.97
2018-11-21T09:30:15.818Z,14.60
2018-11-21T09:32:44.668Z,16.10
2018-11-21T09:35:14.349Z,15.33
2018-11-21T09:37:42.479Z,18.37
2018-11-21T09:40:12.417Z,17.50
2018-11-21T09:42:41.448Z,18.73
2018-11-21T09:45:11.438Z,15.13
2018-11-21T09:47:39.477Z,14.87
2018-11-21T09:50:10.227Z,12.63
2018-11-21T09:52:38.376Z,12.30
2018-11-21T09:55:06.789Z,12.87
2018-11-21T09:57:35.346Z,12.40
2018-11-21T10:00:22.899Z,19.30
2018-11-21T10:03:11.231Z,48.37
2018-11-21T10:05:39.427Z,30.93
2018-11-21T10:08:36.159Z,17.50
2018-11-21T10:11:04.328Z,13.60
2018-11-21T10:13:32.798Z,13.23
2018-11-21T10:16:01.587Z,49.80
2018-11-21T10:18:29.745Z,46.13
2018-11-21T10:20:57.904Z,14.40
2018-11-21T10:23:26.048Z,11.60
2018-11-21T10:25:54.216Z,13.60
2018-11-21T10:28:22.713Z,11.03
2018-11-21T10:30:50.884Z,10.30
2018-11-21T10:33:19.046Z,11.97
2018-11-21T10:35:47.200Z,14.17
2018-11-21T10:38:15.350Z,12.40
2018-11-21T10:40:43.522Z,10.97
2018-11-21T10:43:11.666Z,11.30
2018-11-21T10:45:39.829Z,26.97
2018-11-21T10:48:07.988Z,24.00
2018-11-21T10:50:36.151Z,20.83
2018-11-21T10:53:04.655Z,13.78
2018-11-21T10:55:32.801Z,10.97
2018-11-21T10:58:01.567Z,13.57
2018-11-21T11:00:47.663Z,11.07
2018-11-21T11:03:20.369Z,26.30
2018-11-21T11:06:04.401Z,12.03
2018-11-21T11:09:00.675Z,10.70
2018-11-21T11:11:53.898Z,10.87
2018-11-21T11:14:39.974Z,13.20
2018-11-21T11:17:19.419Z,9.10
2018-11-21T11:20:19.012Z,12.83
2018-11-21T11:23:04.917Z,10.70
2018-11-21T11:26:10.267Z,9.80
2018-11-21T11:28:56.574Z,8.97
2018-11-21T11:31:46.556Z,9.63
2018-11-21T11:34:21.192Z,9.50
2018-11-21T11:37:23.938Z,10.10
2018-11-21T11:40:09.981Z,9.23
2018-11-21T11:42:55.853Z,11.80
2018-11-21T11:45:45.300Z,9.90
2018-11-21T11:48:44.521Z,8.53
2018-11-21T11:51:30.276Z,8.90
2018-11-21T11:54:20.468Z,8.93
2018-11-21T11:57:16.901Z,9.77
2018-11-21T12:00:00.243Z,9.77
2018-11-21T12:03:02.760Z,13.23
2018-11-21T12:05:53.015Z,8.53
2018-11-21T12:08:55.629Z,11.07
2018-11-21T12:11:41.785Z,11.90
2018-11-21T12:14:32.137Z,8.07
2018-11-21T12:17:18.438Z,9.73
2018-11-21T12:20:24.079Z,8.00
2018-11-21T12:23:14.078Z,7.23
2018-11-21T12:26:00.482Z,8.00
2018-11-21T12:28:53.737Z,7.60
2018-11-21T12:31:32.608Z,8.40
2018-11-21T12:34:28.690Z,8.10
2018-11-21T12:37:14.818Z,8.10
2018-11-21T12:40:00.670Z,7.63
2018-11-21T12:42:50.679Z,7.43
2018-11-21T12:45:44.460Z,8.07
2018-11-21T12:48:30.415Z,10.63
2018-11-21T12:51:32.907Z,9.37
2018-11-21T12:54:20.207Z,10.00
2018-11-21T12:56:58.459Z,9.33
2018-11-21T12:59:48.735Z,9.30
2018-11-21T13:02:36.000Z,8.40
2018-11-21T13:05:24.969Z,11.57
2018-11-21T13:08:17.176Z,7.87
2018-11-21T13:11:03.171Z,6.43
2018-11-21T13:13:53.177Z,6.80
2018-11-21T13:16:39.478Z,6.87
2018-11-21T13:19:26.768Z,7.23
2018-11-21T13:22:13.094Z,7.20
2018-11-21T13:25:12.676Z,7.20
2018-11-21T13:28:18.303Z,8.10
2018-11-21T13:31:04.290Z,7.03
2018-11-21T13:33:51.599Z,7.30
2018-11-21T13:36:50.934Z,7.00
2018-11-21T13:39:47.322Z,7.47
2018-11-21T13:42:38.093Z,8.70
2018-11-21T13:45:31.050Z,8.37
2018-11-21T13:48:27.433Z,8.83
2018-11-21T13:51:14.702Z,7.10
2018-11-21T13:54:15.350Z,7.43
2018-11-21T13:56:43.639Z,8.00
2018-11-21T13:59:11.751Z,7.60
2018-11-21T14:01:39.907Z,7.73
2018-11-21T14:04:08.079Z,7.87
2018-11-21T14:06:36.223Z,6.40
2018-11-21T14:09:06.789Z,6.97
2018-11-21T14:11:34.939Z,8.20
2018-11-21T14:14:03.091Z,7.00
2018-11-21T14:16:31.243Z,7.10
2018-11-21T14:18:59.509Z,7.27
2018-11-21T14:21:27.985Z,7.50
2018-11-21T14:23:56.157Z,6.60
2018-11-21T14:26:24.382Z,6.37
2018-11-21T14:28:52.512Z,7.87
2018-11-21T14:31:20.669Z,7.87
2018-11-21T14:33:48.820Z,8.00
2018-11-21T14:36:16.962Z,8.57
2018-11-21T14:38:45.116Z,8.37
2018-11-21T14:41:13.299Z,8.47
2018-11-21T14:43:41.488Z,9.37
2018-11-21T14:46:10.356Z,9.00
2018-11-21T14:48:38.775Z,9.37
2018-11-21T14:51:06.956Z,8.70
2018-11-21T14:53:35.096Z,8.50
2018-11-21T14:56:03.295Z,9.83
2018-11-21T14:58:31.480Z,11.27
2018-11-21T15:00:59.643Z,9.13
2018-11-21T15:03:28.146Z,12.97
2018-11-21T15:05:56.340Z,9.43
2018-11-21T15:08:24.492Z,10.88
2018-11-21T15:10:52.647Z,14.10
2018-11-21T15:13:20.801Z,9.50
2018-11-21T15:15:48.949Z,12.77
2018-11-21T15:18:17.103Z,11.87
2018-11-21T15:20:45.267Z,10.63
2018-11-21T15:23:13.531Z,10.20
2018-11-21T15:25:41.743Z,12.17
2018-11-21T15:28:09.879Z,12.50
2018-11-21T15:30:38.063Z,17.20
2018-11-21T15:33:06.455Z,14.90
2018-11-21T15:35:34.645Z,15.73
2018-11-21T15:38:02.822Z,24.33
2018-11-21T15:40:30.988Z,19.97
2018-11-21T15:42:59.174Z,21.70
2018-11-21T15:45:27.858Z,20.87
2018-11-21T15:47:57.736Z,22.93
2018-11-21T15:50:26.624Z,24.13
2018-11-21T15:52:54.786Z,16.60
2018-11-21T15:55:23.215Z,16.83
2018-11-21T15:57:51.368Z,15.90
2018-11-21T16:00:22.346Z,15.17
2018-11-21T16:02:51.931Z,60.85
2018-11-21T16:05:20.173Z,25.27
2018-11-21T16:07:48.624Z,30.10
2018-11-21T16:10:19.051Z,19.67
2018-11-21T16:12:46.828Z,20.77
2018-11-21T16:15:17.902Z,19.70
2018-11-21T16:17:46.097Z,20.57
2018-11-21T16:20:15.380Z,55.50
2018-11-21T16:22:43.615Z,23.47
2018-11-21T16:25:14.873Z,21.07
2018-11-21T16:27:43.803Z,22.33
2018-11-21T16:30:14.159Z,20.70
2018-11-21T16:32:42.836Z,19.63
2018-11-21T16:35:11.385Z,19.43
2018-11-21T16:37:40.337Z,17.40
2018-11-21T16:40:14.039Z,20.43
2018-11-21T16:42:42.381Z,17.80
2018-11-21T16:45:12.602Z,20.30
2018-11-21T16:47:40.787Z,22.60
2018-11-21T16:50:11.356Z,21.83
2018-11-21T16:52:39.797Z,20.40
2018-11-21T16:55:09.580Z,25.20
2018-11-21T16:57:37.735Z,19.90
2018-11-21T17:00:08.986Z,20.03
2018-11-21T17:02:37.179Z,26.13
2018-11-21T17:05:07.205Z,18.77
2018-11-21T17:07:35.760Z,13.07
2018-11-21T17:10:04.312Z,14.10
2018-11-21T17:12:32.478Z,32.70
2018-11-21T17:15:00.690Z,20.53
2018-11-21T17:17:28.883Z,14.63
2018-11-21T17:19:57.855Z,16.47
2018-11-21T17:22:26.191Z,22.23
2018-11-21T17:24:54.218Z,21.60
2018-11-21T17:27:22.387Z,14.70
2018-11-21T17:29:53.979Z,13.83
2018-11-21T17:32:18.851Z,14.87
2018-11-21T17:34:47.036Z,15.93
2018-11-21T17:37:15.301Z,16.10
2018-11-21T17:39:43.755Z,16.50
2018-11-21T17:42:11.929Z,14.70
2018-11-21T17:44:40.083Z,13.40
2018-11-21T17:47:08.289Z,18.77
2018-11-21T17:49:36.772Z,20.40
2018-11-21T17:52:05.057Z,22.17
2018-11-21T17:54:33.278Z,15.33
2018-11-21T17:57:01.453Z,16.50
2018-11-21T17:59:29.651Z,12.60
2018-11-21T18:02:01.809Z,17.37
2018-11-21T18:04:30.855Z,14.17
2018-11-21T18:06:59.064Z,16.73
2018-11-21T18:09:27.224Z,12.27
2018-11-21T18:11:55.380Z,40.80
2018-11-21T18:14:23.580Z,29.83
2018-11-21T18:16:51.753Z,17.87
2018-11-21T18:19:19.928Z,15.37
2018-11-21T18:21:48.153Z,15.53
2018-11-21T18:24:16.344Z,22.43
2018-11-21T18:26:44.576Z,26.13
2018-11-21T18:29:13.148Z,21.80
2018-11-21T18:31:41.323Z,20.47
2018-11-21T18:34:09.713Z,23.30
2018-11-21T18:36:38.139Z,16.00
2018-11-21T18:39:08.897Z,19.80
2018-11-21T18:41:37.089Z,16.70
2018-11-21T18:44:05.299Z,21.90
2018-11-21T18:46:33.490Z,25.67
2018-11-21T18:49:01.985Z,17.57
2018-11-21T18:51:30.213Z,17.30
2018-11-21T18:53:58.396Z,34.77
2018-11-21T18:56:33.664Z,13.57
2018-11-21T18:59:37.719Z,15.10
2018-11-21T19:02:06.136Z,15.00
2018-11-21T19:04:34.304Z,14.37
2018-11-21T19:07:02.484Z,13.10
2018-11-21T19:09:30.642Z,12.37
2018-11-21T19:11:58.838Z,12.07
2018-11-21T19:14:27.007Z,13.73
2018-11-21T19:16:55.162Z,14.40
2018-11-21T19:19:23.346Z,11.77
2018-11-21T19:21:51.550Z,12.60
2018-11-21T19:24:19.703Z,21.10
2018-11-21T19:26:47.850Z,14.13
2018-11-21T19:29:16.026Z,14.97
2018-11-21T19:31:44.189Z,14.30
2018-11-21T19:34:12.719Z,14.20
2018-11-21T19:36:41.310Z,13.57
2018-11-21T19:39:12.351Z,19.10
2018-11-21T19:41:40.897Z,11.47
2018-11-21T19:44:09.065Z,11.80
2018-11-21T19:46:37.523Z,18.00
